Time;durP1;ratioP1;P1;durP2;ratioP2;P2;SDS_P1;SDS_P2;PMS_P1;PMS_P2;Temp;Humidity;BMP_temperature;BMP_pressure;BME280_temperature;BME280_humidity;BME280_pressure;Samples;Min_cycle;Max_cycle;Signal;HPM_P1;HPM_P2
2021/12/12 00:01:08;;;;;;;34.13;21.40;;;9.00;81.50;;;;;;4938027;29;20019;-83
2021/12/12 00:03:41;;;;;;;34.22;20.88;;;9.00;81.50;;;;;;4938537;29;20027;-84
2021/12/12 00:06:19;;;;;;;33.80;20.98;;;9.00;81.50;;;;;;4938049;29;20027;-83
2021/12/12 00:08:47;;;;;;;39.33;21.25;;;9.00;81.50;;;;;;4937700;29;20536;-82
2021/12/12 00:11:16;;;;;;;51.55;22.17;;;9.00;81.60;;;;;;4937455;29;20023;-83
2021/12/12 00:13:47;;;;;;;38.83;21.63;;;9.00;81.50;;;;;;4937655;29;20031;-84
2021/12/12 00:16:13;;;;;;;38.15;20.77;;;9.00;81.50;;;;;;4937641;29;20027;-83
2021/12/12 00:18:40;;;;;;;35.75;20.83;;;9.00;81.50;;;;;;4937249;29;20031;-83
2021/12/12 00:21:07;;;;;;;35.40;19.95;;;9.00;81.50;;;;;;4937383;29;20413;-83
2021/12/12 00:23:32;;;;;;;32.53;19.25;;;9.10;81.50;;;;;;4937538;29;20031;-83
2021/12/12 00:25:59;;;;;;;30.83;19.80;;;9.00;81.50;;;;;;4937965;29;20118;-83
2021/12/12 00:28:26;;;;;;;33.22;19.42;;;9.00;81.50;;;;;;4937542;29;20039;-84
2021/12/12 00:30:56;;;;;;;39.55;18.60;;;9.00;81.50;;;;;;4937509;29;20065;-83
2021/12/12 00:33:23;;;;;;;31.48;19.20;;;9.00;81.50;;;;;;4937399;29;20023;-84
2021/12/12 00:35:50;;;;;;;31.67;19.08;;;9.00;81.40;;;;;;4937636;29;20376;-82
2021/12/12 00:38:28;;;;;;;31.17;18.52;;;9.00;81.40;;;;;;4937212;29;20482;-83
2021/12/12 00:40:59;;;;;;;29.08;17.58;;;9.00;81.40;;;;;;4937307;29;20030;-83
2021/12/12 00:43:32;;;;;;;29.10;17.08;;;9.00;81.30;;;;;;4937482;29;20067;-83
2021/12/12 00:46:02;;;;;;;27.73;17.00;;;9.00;81.20;;;;;;4937555;29;20479;-83
2021/12/12 00:48:30;;;;;;;26.95;17.10;;;9.00;81.20;;;;;;4937274;29;20414;-83
2021/12/12 00:50:58;;;;;;;28.30;17.33;;;9.00;81.30;;;;;;4937355;29;20035;-83
2021/12/12 00:53:25;;;;;;;27.10;16.88;;;9.00;81.30;;;;;;4954191;29;20074;-83
2021/12/12 00:55:53;;;;;;;28.02;17.10;;;9.00;81.30;;;;;;4937168;29;20078;-82
2021/12/12 00:58:20;;;;;;;28.70;16.70;;;9.00;81.30;;;;;;4936816;29;20027;-83
2021/12/12 01:00:50;;;;;;;25.25;15.45;;;9.00;81.20;;;;;;4937000;29;20027;-83
2021/12/12 01:03:22;;;;;;;25.52;15.20;;;9.00;81.20;;;;;;4938006;28;20020;-83
2021/12/12 01:05:50;;;;;;;24.65;15.55;;;9.00;81.20;;;;;;4941104;29;20019;-84
2021/12/12 01:08:15;;;;;;;24.33;14.95;;;9.00;81.20;;;;;;4958561;29;20510;-83
2021/12/12 01:10:48;;;;;;;25.15;15.02;;;9.00;81.20;;;;;;4940802;29;20035;-84
2021/12/12 01:13:14;;;;;;;23.20;15.10;;;9.00;81.20;;;;;;4940993;29;20027;-83
2021/12/12 01:15:51;;;;;;;23.75;13.90;;;9.00;81.20;;;;;;4941007;29;20032;-82
2021/12/12 01:18:21;;;;;;;26.52;14.88;;;9.00;81.10;;;;;;4940707;29;20061;-83
2021/12/12 01:20:57;;;;;;;22.15;14.70;;;9.00;81.20;;;;;;4940586;29;20140;-83
2021/12/12 01:23:37;;;;;;;23.48;15.00;;;9.00;81.20;;;;;;4940760;29;20023;-84
2021/12/12 01:26:05;;;;;;;23.55;14.45;;;9.00;81.20;;;;;;4940934;29;20059;-84
2021/12/12 01:28:34;;;;;;;22.50;14.05;;;9.00;81.30;;;;;;4940440;29;20030;-84
2021/12/12 01:31:02;;;;;;;23.15;13.52;;;9.00;81.30;;;;;;4940261;29;20035;-84
2021/12/12 01:33:36;;;;;;;21.70;13.85;;;9.00;81.30;;;;;;4940547;29;20450;-85
2021/12/12 01:36:11;;;;;;;23.13;14.00;;;9.00;81.20;;;;;;4940584;29;20028;-83
2021/12/12 01:41:29;;;;;;;21.45;13.90;;;9.00;81.10;;;;;;4958201;29;20055;-83
2021/12/12 01:44:01;;;;;;;22.45;13.48;;;9.60;81.30;;;;;;4940578;29;20032;-83
2021/12/12 01:46:33;;;;;;;22.42;13.48;;;9.00;81.00;;;;;;4940590;29;20023;-84
2021/12/12 01:49:07;;;;;;;21.95;12.95;;;9.00;81.00;;;;;;4939915;29;20046;-83
2021/12/12 01:51:33;;;;;;;19.10;12.63;;;9.00;80.90;;;;;;4957517;29;20099;-83
2021/12/12 01:54:01;;;;;;;20.63;13.10;;;8.90;80.80;;;;;;4940308;29;20052;-84
2021/12/12 01:56:32;;;;;;;21.38;13.02;;;9.00;80.90;;;;;;4940160;29;20038;-83
2021/12/12 01:59:02;;;;;;;19.98;13.25;;;9.00;80.90;;;;;;4939269;29;20122;-83
2021/12/12 02:01:39;;;;;;;20.65;13.68;;;9.00;80.90;;;;;;4940096;29;20118;-84
2021/12/12 02:04:10;;;;;;;22.67;13.45;;;9.00;80.90;;;;;;4940071;29;20490;-83
2021/12/12 02:06:36;;;;;;;20.77;13.32;;;8.90;80.70;;;;;;4937898;29;20033;-83
2021/12/12 02:09:05;;;;;;;22.58;12.77;;;9.00;80.70;;;;;;4940469;29;20054;-83
2021/12/12 02:11:33;;;;;;;19.92;12.85;;;8.90;80.60;;;;;;4940161;29;20110;-83
2021/12/12 02:14:08;;;;;;;20.65;12.80;;;8.90;80.50;;;;;;4940562;29;20077;-83
2021/12/12 02:16:35;;;;;;;19.98;12.48;;;9.00;80.60;;;;;;4939577;29;20070;-83
2021/12/12 02:19:02;;;;;;;19.88;12.18;;;8.90;80.40;;;;;;4939923;29;20495;-83
2021/12/12 02:21:35;;;;;;;21.88;11.93;;;9.00;80.50;;;;;;4940198;29;20023;-83
2021/12/12 02:35:31;;;;;;;20.30;11.13;;;8.90;80.40;;;;;;4957893;29;20038;-83
2021/12/12 02:37:59;;;;;;;17.42;11.13;;;9.00;80.50;;;;;;4939854;29;20023;-84
2021/12/12 02:40:44;;;;;;;20.88;10.95;;;9.00;80.50;;;;;;4939823;29;20118;-83
2021/12/12 02:43:12;;;;;;;19.98;10.88;;;9.00;80.50;;;;;;4939537;29;20647;-83
2021/12/12 02:45:38;;;;;;;20.10;10.88;;;9.00;80.50;;;;;;4939398;29;20034;-84
2021/12/12 02:48:08;;;;;;;16.40;10.23;;;8.90;80.50;;;;;;4939329;29;20086;-84
2021/12/12 02:50:41;;;;;;;18.98;10.63;;;8.90;80.50;;;;;;4939084;29;20090;-84
2021/12/12 02:53:32;;;;;;;19.05;10.43;;;8.90;80.50;;;;;;4939303;29;20031;-83
2021/12/12 02:56:02;;;;;;;19.15;9.90;;;8.90;80.50;;;;;;4956785;29;20487;-83
2021/12/12 02:58:28;;;;;;;16.15;9.95;;;8.90;80.50;;;;;;4938620;29;20525;-83
2021/12/12 03:04:17;;;;;;;16.52;9.45;;;9.00;80.60;;;;;;4958155;29;20500;-82
2021/12/12 03:06:43;;;;;;;16.35;9.52;;;9.00;80.60;;;;;;4939168;29;20063;-83
2021/12/12 03:19:20;;;;;;;16.88;9.13;;;9.00;80.80;;;;;;4959269;29;20047;-83
2021/12/12 03:21:46;;;;;;;15.40;9.18;;;9.00;80.80;;;;;;4934395;29;20495;-84
2021/12/12 03:24:19;;;;;;;16.73;9.07;;;9.00;80.80;;;;;;4942678;28;20394;-83
2021/12/12 03:26:50;;;;;;;16.60;9.27;;;9.00;80.90;;;;;;4958287;28;20162;-84
2021/12/12 03:29:17;;;;;;;15.73;8.52;;;8.90;80.90;;;;;;4958333;28;20042;-84
2021/12/12 03:31:53;;;;;;;14.90;8.32;;;9.00;81.00;;;;;;4958374;28;20030;-84
2021/12/12 03:34:21;;;;;;;16.00;8.90;;;9.00;81.00;;;;;;4958050;28;20030;-83
2021/12/12 03:36:48;;;;;;;16.17;8.90;;;9.00;81.10;;;;;;4958043;28;20027;-83
2021/12/12 03:39:24;;;;;;;16.35;8.90;;;9.00;81.10;;;;;;4957532;28;20035;-83
2021/12/12 03:41:52;;;;;;;14.30;8.85;;;8.90;81.00;;;;;;4957619;28;20022;-84
2021/12/12 03:44:22;;;;;;;14.65;8.50;;;9.00;81.10;;;;;;4957457;28;20431;-83
2021/12/12 03:46:51;;;;;;;14.30;7.47;;;9.00;81.10;;;;;;4957715;28;20038;-83
2021/12/12 03:49:18;;;;;;;12.73;7.78;;;9.00;81.00;;;;;;4956800;28;20469;-83
2021/12/12 03:51:45;;;;;;;13.52;8.00;;;8.90;80.80;;;;;;4957583;28;20399;-84
2021/12/12 03:54:11;;;;;;;14.43;7.50;;;8.90;80.80;;;;;;4957141;28;20030;-83
2021/12/12 03:56:38;;;;;;;12.35;6.68;;;9.00;80.80;;;;;;4957564;28;20038;-84
2021/12/12 03:59:04;;;;;;;12.88;7.53;;;8.90;80.70;;;;;;4956853;28;20058;-84
2021/12/12 04:01:48;;;;;;;13.52;6.85;;;8.90;80.60;;;;;;4974665;28;20023;-83
2021/12/12 04:04:24;;;;;;;10.63;6.22;;;8.90;80.50;;;;;;4957528;28;20019;-85
2021/12/12 04:06:50;;;;;;;13.38;6.50;;;9.00;80.60;;;;;;4957390;28;20031;-83
2021/12/12 04:09:17;;;;;;;12.52;6.38;;;8.90;80.50;;;;;;4957094;28;20458;-83
2021/12/12 04:11:51;;;;;;;10.77;6.07;;;8.90;80.40;;;;;;4957295;28;20030;-83
2021/12/12 04:14:17;;;;;;;10.68;5.90;;;8.90;80.40;;;;;;4957263;28;20047;-83
2021/12/12 04:16:47;;;;;;;10.48;6.18;;;8.90;80.30;;;;;;4956946;28;20034;-83
2021/12/12 04:19:13;;;;;;;11.50;5.97;;;8.90;80.30;;;;;;4956999;28;20027;-83
2021/12/12 04:21:40;;;;;;;10.90;5.43;;;8.90;80.30;;;;;;4956938;28;20026;-83
2021/12/12 04:24:07;;;;;;;10.93;5.65;;;9.00;80.40;;;;;;4956902;28;20023;-83
2021/12/12 04:26:39;;;;;;;10.52;5.43;;;9.00;80.30;;;;;;4957155;28;20026;-83
2021/12/12 04:29:39;;;;;;;11.20;5.60;;;8.90;80.30;;;;;;4956467;28;20123;-83
2021/12/12 04:32:11;;;;;;;12.75;5.70;;;8.90;80.40;;;;;;4906724;28;20043;-83
2021/12/12 04:34:42;;;;;;;11.52;5.20;;;9.00;80.40;;;;;;4957494;28;20490;-83
2021/12/12 04:37:08;;;;;;;12.23;5.40;;;9.00;80.40;;;;;;4956931;28;20034;-84
2021/12/12 04:39:38;;;;;;;9.88;5.53;;;8.90;80.40;;;;;;4958612;28;20058;-83
2021/12/12 04:42:09;;;;;;;10.55;4.60;;;9.00;80.40;;;;;;4960808;28;20027;-83
2021/12/12 04:44:37;;;;;;;12.25;5.63;;;8.90;80.40;;;;;;4961724;28;20117;-84
2021/12/12 04:51:00;;;;;;;9.30;5.45;;;8.90;80.50;;;;;;4979082;28;20054;-84
2021/12/12 04:53:42;;;;;;;10.30;5.20;;;8.90;80.60;;;;;;4959023;28;20038;-83
2021/12/12 04:57:08;;;;;;;8.68;4.97;;;8.90;80.70;;;;;;4961659;28;20034;-83
2021/12/12 04:59:49;;;;;;;9.85;5.40;;;9.00;80.70;;;;;;4961869;28;20026;-83
2021/12/12 05:05:26;;;;;;;10.85;5.10;;;9.00;80.50;;;;;;4981038;28;20066;-84
2021/12/12 05:07:58;;;;;;;8.30;4.60;;;9.00;80.20;;;;;;4962107;28;20049;-83
2021/12/12 05:10:37;;;;;;;9.15;4.63;;;9.10;80.20;;;;;;4961906;28;20023;-83
2021/12/12 05:19:45;;;;;;;9.80;4.68;;;9.00;80.00;;;;;;4977581;28;20530;-83
2021/12/12 05:22:19;;;;;;;10.40;5.07;;;9.00;79.90;;;;;;4954452;28;20491;-84
2021/12/12 05:24:55;;;;;;;9.95;4.40;;;9.10;79.90;;;;;;4946259;28;20034;-83
2021/12/12 05:27:28;;;;;;;9.48;4.43;;;9.10;79.90;;;;;;4981233;28;20023;-84
2021/12/12 05:30:10;;;;;;;9.50;4.60;;;9.00;79.80;;;;;;4963548;28;20027;-84
2021/12/12 05:32:36;;;;;;;8.57;4.35;;;9.10;79.80;;;;;;4961612;28;20027;-82
2021/12/12 05:35:04;;;;;;;9.38;4.50;;;9.10;79.80;;;;;;4961705;28;20023;-83
2021/12/12 05:37:30;;;;;;;6.93;4.25;;;9.10;79.80;;;;;;4959725;28;20041;-83
2021/12/12 05:40:02;;;;;;;10.27;4.43;;;9.10;79.80;;;;;;4964536;28;20027;-84
2021/12/12 05:42:33;;;;;;;10.85;4.47;;;9.10;79.80;;;;;;4940739;29;20050;-83
2021/12/12 05:45:03;;;;;;;8.75;4.28;;;9.10;79.90;;;;;;4925611;29;20032;-83
2021/12/12 05:50:00;;;;;;;9.40;4.15;;;9.00;79.80;;;;;;5012230;23;20621;-76
2021/12/12 05:52:25;;;;;;;9.75;4.60;;;9.10;79.90;;;;;;4938991;29;20034;-76
2021/12/12 05:54:52;;;;;;;10.48;4.45;;;9.10;79.90;;;;;;4956570;29;20668;-76
2021/12/12 05:57:24;;;;;;;8.70;3.85;;;9.00;79.80;;;;;;4939229;29;20031;-75
2021/12/12 05:59:51;;;;;;;8.05;3.95;;;9.00;79.90;;;;;;4955813;29;20079;-76
2021/12/12 06:02:17;;;;;;;9.32;3.75;;;9.10;79.90;;;;;;4939059;29;20030;-75
2021/12/12 06:04:43;;;;;;;8.63;3.80;;;9.00;79.90;;;;;;4939031;29;20019;-76
2021/12/12 06:07:14;;;;;;;9.68;3.85;;;9.00;80.10;;;;;;4956586;29;20419;-76
2021/12/12 06:09:40;;;;;;;8.27;4.03;;;9.00;80.20;;;;;;4938795;29;20027;-76
2021/12/12 06:12:07;;;;;;;11.88;4.53;;;9.00;80.30;;;;;;4956168;29;20035;-76
2021/12/12 06:14:33;;;;;;;10.05;3.50;;;9.00;80.50;;;;;;4956031;29;20034;-76
2021/12/12 06:17:01;;;;;;;7.00;3.67;;;9.00;80.80;;;;;;4938933;29;20031;-76
2021/12/12 06:19:31;;;;;;;9.02;3.22;;;8.90;80.90;;;;;;4955609;29;20566;-76
2021/12/12 06:21:58;;;;;;;8.23;3.55;;;8.90;81.00;;;;;;4938864;29;20038;-76
2021/12/12 06:24:26;;;;;;;8.63;3.55;;;8.80;81.10;;;;;;4938766;29;20059;-76
2021/12/12 06:26:54;;;;;;;7.93;3.20;;;8.90;81.30;;;;;;4955902;29;20031;-75
2021/12/12 06:29:19;;;;;;;7.32;2.90;;;8.90;81.30;;;;;;4938329;29;20059;-76
2021/12/12 06:31:49;;;;;;;8.27;3.05;;;8.80;81.40;;;;;;4938686;29;20541;-75
2021/12/12 06:34:15;;;;;;;7.30;2.90;;;8.80;81.40;;;;;;4938626;29;20407;-76
2021/12/12 06:36:42;;;;;;;7.45;3.10;;;8.80;81.40;;;;;;4938662;29;20030;-75
2021/12/12 06:39:10;;;;;;;6.72;2.90;;;8.80;81.50;;;;;;4955321;29;20050;-75
2021/12/12 06:41:36;;;;;;;6.15;2.75;;;8.80;81.50;;;;;;4955635;29;20023;-75
2021/12/12 06:44:05;;;;;;;9.85;3.05;;;8.80;81.50;;;;;;4955886;29;20474;-76
2021/12/12 06:46:31;;;;;;;8.55;3.05;;;8.80;81.50;;;;;;4955494;29;20471;-76
2021/12/12 06:48:58;;;;;;;6.53;2.40;;;8.80;81.60;;;;;;4955086;29;20042;-77
2021/12/12 06:51:27;;;;;;;7.95;2.80;;;8.80;81.50;;;;;;4955554;29;20402;-75
2021/12/12 06:53:52;;;;;;;9.40;3.03;;;8.80;81.60;;;;;;4955387;29;20190;-75
2021/12/12 06:56:21;;;;;;;7.97;2.50;;;8.80;81.60;;;;;;4955383;29;20132;-75
2021/12/12 06:58:49;;;;;;;7.88;2.67;;;8.80;81.60;;;;;;4954759;29;20551;-74
2021/12/12 07:01:23;;;;;;;7.70;2.53;;;8.80;81.50;;;;;;4937552;28;20023;-75
2021/12/12 07:03:50;;;;;;;7.38;2.55;;;8.80;81.50;;;;;;4938121;29;20398;-75
2021/12/12 07:06:23;;;;;;;7.80;2.67;;;8.80;81.50;;;;;;4955130;29;20027;-75
2021/12/12 07:08:50;;;;;;;6.72;2.70;;;8.80;81.40;;;;;;4954911;29;20027;-75
2021/12/12 07:11:18;;;;;;;9.02;3.08;;;8.80;81.50;;;;;;4937767;29;20034;-77
2021/12/12 07:13:46;;;;;;;7.63;2.80;;;8.90;81.50;;;;;;4952615;29;20089;-76
2021/12/12 07:16:13;;;;;;;7.20;2.80;;;8.80;81.50;;;;;;4950616;29;20040;-75
2021/12/12 07:18:39;;;;;;;7.53;2.45;;;8.80;81.50;;;;;;4932352;29;20104;-75
2021/12/12 07:21:09;;;;;;;7.43;2.80;;;8.90;81.60;;;;;;4932580;29;20188;-75
2021/12/12 07:23:37;;;;;;;6.72;3.13;;;8.90;81.70;;;;;;4949964;29;20070;-79
2021/12/12 07:26:07;;;;;;;8.43;2.97;;;8.80;81.60;;;;;;4932987;29;20035;-76
2021/12/12 07:28:33;;;;;;;9.57;2.70;;;8.80;81.60;;;;;;4928265;29;20314;-76
2021/12/12 07:31:06;;;;;;;10.60;2.80;;;8.90;81.70;;;;;;4932354;29;20034;-76
2021/12/12 07:33:33;;;;;;;7.95;2.60;;;8.90;82.20;;;;;;4948027;29;20043;-75
2021/12/12 07:36:01;;;;;;;9.57;2.95;;;8.80;81.70;;;;;;4928419;29;20440;-76
2021/12/12 07:38:29;;;;;;;8.15;2.80;;;8.80;81.70;;;;;;4948559;28;20098;-76
2021/12/12 07:40:56;;;;;;;10.77;3.05;;;8.90;81.80;;;;;;4949618;29;20424;-76
2021/12/12 07:43:22;;;;;;;8.77;2.63;;;8.80;81.80;;;;;;4932547;29;20066;-75
2021/12/12 07:45:48;;;;;;;8.05;2.70;;;8.80;81.90;;;;;;4932619;29;20054;-75
2021/12/12 07:48:14;;;;;;;9.20;3.38;;;8.80;81.90;;;;;;4949333;29;20035;-75
2021/12/12 07:50:42;;;;;;;7.70;2.40;;;8.90;82.00;;;;;;4932002;29;20525;-75
2021/12/12 07:53:08;;;;;;;6.68;2.63;;;8.90;82.00;;;;;;4932043;29;20035;-76
2021/12/12 07:55:36;;;;;;;8.32;2.90;;;8.90;82.10;;;;;;4949449;29;20055;-75
2021/12/12 07:58:07;;;;;;;11.30;3.50;;;8.90;82.20;;;;;;4932065;29;20041;-76
2021/12/12 08:00:34;;;;;;;7.78;2.78;;;8.80;82.10;;;;;;4948668;29;20055;-75
2021/12/12 08:03:01;;;;;;;6.32;2.70;;;8.90;82.20;;;;;;4930915;29;20195;-74
2021/12/12 08:05:28;;;;;;;7.82;2.58;;;8.90;82.20;;;;;;4931193;29;20187;-75
2021/12/12 08:07:57;;;;;;;10.50;2.90;;;8.80;82.20;;;;;;4947758;29;20111;-75
2021/12/12 08:10:23;;;;;;;9.18;2.72;;;8.80;82.30;;;;;;4948402;29;20035;-74
2021/12/12 08:12:49;;;;;;;6.70;2.60;;;8.80;82.30;;;;;;4931915;29;20034;-76
2021/12/12 08:15:15;;;;;;;7.97;2.70;;;8.90;82.40;;;;;;4931674;29;20094;-76
2021/12/12 08:17:42;;;;;;;7.85;2.72;;;8.90;82.50;;;;;;4932169;29;20031;-75
2021/12/12 08:20:10;;;;;;;8.32;2.95;;;8.80;82.40;;;;;;4931871;29;20450;-74
2021/12/12 08:22:36;;;;;;;7.05;2.40;;;8.90;82.50;;;;;;4923336;28;20031;-75
2021/12/12 08:25:05;;;;;;;7.55;3.03;;;8.90;82.50;;;;;;4930805;29;20027;-76
2021/12/12 08:27:31;;;;;;;7.72;2.75;;;8.80;82.60;;;;;;4931816;29;20066;-76
2021/12/12 08:29:59;;;;;;;7.47;2.42;;;8.90;82.60;;;;;;4932038;29;20058;-77
2021/12/12 08:32:26;;;;;;;6.75;2.58;;;8.90;82.60;;;;;;4947880;29;20038;-76
2021/12/12 08:34:52;;;;;;;7.68;2.90;;;8.90;82.70;;;;;;4929915;29;20063;-76
2021/12/12 08:37:19;;;;;;;6.93;2.85;;;8.90;82.70;;;;;;4930631;29;20036;-76
2021/12/12 08:39:46;;;;;;;7.75;2.70;;;8.80;82.70;;;;;;4946831;29;20020;-75
2021/12/12 08:42:13;;;;;;;9.00;2.85;;;8.80;82.70;;;;;;4931053;29;20078;-76
2021/12/12 08:44:39;;;;;;;9.95;2.83;;;8.80;82.80;;;;;;4930948;29;20027;-76
2021/12/12 08:47:09;;;;;;;8.70;2.47;;;8.80;82.80;;;;;;4931133;29;20019;-76
2021/12/12 08:49:40;;;;;;;8.65;2.47;;;8.80;82.90;;;;;;4947561;29;20039;-76
2021/12/12 08:52:16;;;;;;;7.88;2.50;;;8.80;82.90;;;;;;4932431;29;20505;-77
2021/12/12 08:54:46;;;;;;;7.38;2.70;;;8.90;82.90;;;;;;4932210;29;20043;-76
2021/12/12 08:57:45;;;;;;;6.65;2.40;;;8.90;83.00;;;;;;4963995;28;20522;-77
2021/12/12 09:00:16;;;;;;;8.88;2.70;;;8.90;83.10;;;;;;4948456;29;20027;-75
2021/12/12 09:02:42;;;;;;;;;;;8.90;83.00;;;;;;4932440;29;20038;-76
2021/12/12 09:05:16;;;;;;;7.18;2.55;;;8.80;83.00;;;;;;4931776;29;19906;-76
2021/12/12 09:07:47;;;;;;;7.18;2.45;;;8.80;83.00;;;;;;4932264;29;20526;-76
2021/12/12 09:10:25;;;;;;;12.13;3.17;;;8.90;83.00;;;;;;4948577;29;20035;-75
2021/12/12 09:13:02;;;;;;;17.50;3.10;;;8.90;83.10;;;;;;4931779;29;20151;-76
2021/12/12 09:15:40;;;;;;;18.83;3.80;;;8.90;83.30;;;;;;4931841;29;20090;-76
2021/12/12 09:18:40;;;;;;;12.70;2.88;;;8.90;83.40;;;;;;4948283;29;20023;-75
2021/12/12 09:21:14;;;;;;;10.68;3.03;;;8.90;83.50;;;;;;4946633;29;20103;-76
2021/12/12 09:24:01;;;;;;;14.75;2.67;;;8.90;83.50;;;;;;4947653;29;20035;-75
2021/12/12 09:26:27;;;;;;;13.43;3.00;;;8.90;83.60;;;;;;4932870;29;20027;-75
2021/12/12 09:28:56;;;;;;;12.10;2.53;;;8.90;83.60;;;;;;4950756;29;20027;-74
2021/12/12 09:31:32;;;;;;;8.00;2.90;;;8.90;83.60;;;;;;4934760;29;20035;-74
2021/12/12 09:34:09;;;;;;;7.40;2.47;;;8.90;83.60;;;;;;4933712;29;20031;-75
2021/12/12 09:36:40;;;;;;;6.30;2.70;;;8.90;83.60;;;;;;4950475;29;20035;-76
2021/12/12 09:39:28;;;;;;;7.13;2.28;;;8.90;83.70;;;;;;4932025;29;20031;-75
2021/12/12 09:42:16;;;;;;;7.20;2.78;;;8.90;83.70;;;;;;4920253;29;20040;-75
2021/12/12 09:45:11;;;;;;;7.13;2.25;;;8.90;83.70;;;;;;4949702;29;20027;-77
2021/12/12 09:51:15;;;;;;;4.75;2.17;;;8.90;83.80;;;;;;4931680;29;20032;-75
2021/12/12 09:54:18;;;;;;;6.20;2.63;;;8.90;83.80;;;;;;4915341;29;20050;-76
2021/12/12 09:57:06;;;;;;;6.03;2.42;;;8.90;83.80;;;;;;4915200;29;20110;-75
2021/12/12 10:00:09;;;;;;;5.82;2.63;;;8.90;83.90;;;;;;4914193;29;20073;-74
2021/12/12 10:02:50;;;;;;;6.28;2.55;;;8.90;84.00;;;;;;4914924;29;20472;-76
2021/12/12 10:05:42;;;;;;;6.93;2.50;;;8.90;84.00;;;;;;4915048;29;20024;-76
2021/12/12 10:08:36;;;;;;;4.55;2.30;;;8.90;84.20;;;;;;4915066;29;20102;-75
2021/12/12 10:11:05;;;;;;;6.82;2.33;;;8.90;84.20;;;;;;4915448;29;20071;-76
2021/12/12 10:13:39;;;;;;;5.60;2.60;;;8.90;84.20;;;;;;4915164;29;20023;-76
2021/12/12 10:16:19;;;;;;;4.72;2.30;;;8.90;84.20;;;;;;4915801;29;20035;-76
2021/12/12 10:18:47;;;;;;;5.78;2.65;;;8.90;84.20;;;;;;4914768;29;20028;-74
2021/12/12 10:21:32;;;;;;;6.07;2.67;;;8.90;84.30;;;;;;4931573;29;20046;-75
2021/12/12 10:24:34;;;;;;;5.28;2.58;;;8.90;84.40;;;;;;4933953;29;20038;-76
2021/12/12 10:27:12;;;;;;;5.55;2.85;;;8.90;84.40;;;;;;4933756;29;20037;-75
2021/12/12 10:30:08;;;;;;;5.97;2.88;;;8.90;84.40;;;;;;4922798;29;20028;-76
2021/12/12 10:33:03;;;;;;;5.57;2.50;;;8.90;84.50;;;;;;4931735;29;20032;-76
2021/12/12 10:35:53;;;;;;;4.47;2.40;;;8.90;84.60;;;;;;4899532;29;20040;-76
2021/12/12 10:38:40;;;;;;;5.25;2.38;;;8.90;84.60;;;;;;4923886;29;20062;-76
2021/12/12 10:41:18;;;;;;;5.35;2.30;;;8.90;84.60;;;;;;4950698;29;20055;-76
2021/12/12 10:43:53;;;;;;;3.80;2.45;;;8.90;84.70;;;;;;4934540;29;20481;-76
2021/12/12 10:46:36;;;;;;;4.82;2.63;;;8.90;84.80;;;;;;4933501;29;20023;-76
2021/12/12 10:49:22;;;;;;;7.47;2.88;;;8.90;84.80;;;;;;4933032;29;20046;-76
2021/12/12 10:51:54;;;;;;;6.03;2.47;;;8.90;84.90;;;;;;4932216;29;20041;-75
2021/12/12 10:54:30;;;;;;;5.72;2.50;;;8.90;85.00;;;;;;4932653;29;20083;-76
2021/12/12 10:57:07;;;;;;;4.78;2.63;;;8.90;85.10;;;;;;4933192;29;20611;-76
2021/12/12 10:59:42;;;;;;;5.07;2.35;;;8.90;85.10;;;;;;4933414;29;20525;-77
2021/12/12 11:02:12;;;;;;;9.35;3.00;;;8.90;84.70;;;;;;4950662;29;20086;-76
2021/12/12 11:04:40;;;;;;;5.38;3.03;;;9.00;84.90;;;;;;4933705;29;20046;-76
2021/12/12 11:07:30;;;;;;;837.40;65.43;;;9.00;85.00;;;;;;4933770;29;20050;-76
2021/12/12 11:10:08;;;;;;;673.80;54.80;;;9.00;85.40;;;;;;4950184;29;20387;-75
2021/12/12 11:12:43;;;;;;;367.25;28.55;;;9.00;85.20;;;;;;4933623;29;20877;-78
2021/12/12 11:15:26;;;;;;;434.95;36.20;;;9.00;85.30;;;;;;4934149;29;20090;-77
2021/12/12 11:18:32;;;;;;;240.18;18.65;;;9.00;85.20;;;;;;4933540;29;20049;-74
2021/12/12 11:21:16;;;;;;;141.93;13.13;;;9.00;85.50;;;;;;4926992;29;20038;-77
2021/12/12 11:23:48;;;;;;;172.25;15.52;;;9.00;85.80;;;;;;4929480;29;20028;-76
2021/12/12 11:26:43;;;;;;;71.80;8.50;;;9.00;85.90;;;;;;4913876;29;20035;-75
2021/12/12 11:29:24;;;;;;;57.63;7.22;;;8.90;86.10;;;;;;4911630;29;20035;-76
2021/12/12 11:32:12;;;;;;;59.10;6.38;;;8.90;86.20;;;;;;4913557;29;20032;-76
2021/12/12 11:34:43;;;;;;;36.67;5.10;;;8.90;86.10;;;;;;4913585;29;20051;-76
2021/12/12 11:37:30;;;;;;;43.63;6.57;;;8.90;86.20;;;;;;4913818;29;20031;-75
2021/12/12 11:40:01;;;;;;;37.13;6.18;;;8.90;86.20;;;;;;4913250;29;20032;-76
2021/12/12 11:42:34;;;;;;;30.98;5.97;;;8.90;86.20;;;;;;4917679;29;20024;-75
2021/12/12 11:45:11;;;;;;;21.83;4.75;;;9.00;86.20;;;;;;4918439;29;20027;-77
2021/12/12 11:47:59;;;;;;;27.10;5.25;;;8.90;86.20;;;;;;4918512;29;20047;-77
2021/12/12 11:50:36;;;;;;;24.52;4.95;;;8.90;86.30;;;;;;4918257;29;20039;-78
2021/12/12 11:53:12;;;;;;;23.75;3.95;;;9.00;86.30;;;;;;4935287;29;20071;-78
2021/12/12 11:55:44;;;;;;;21.05;4.30;;;9.00;86.50;;;;;;4919002;29;20036;-78
2021/12/12 11:58:15;;;;;;;;;;;8.90;86.50;;;;;;4918983;29;20034;-78
2021/12/12 12:00:59;;;;;;;13.05;3.30;;;9.00;86.50;;;;;;4918515;29;19907;-78
2021/12/12 12:03:54;;;;;;;12.23;3.50;;;9.00;86.70;;;;;;4935809;29;20028;-79
2021/12/12 12:06:49;;;;;;;10.35;3.22;;;9.00;86.70;;;;;;4918409;29;20055;-77
2021/12/12 12:09:45;;;;;;;8.55;3.38;;;9.00;86.80;;;;;;4918501;29;20373;-78
2021/12/12 12:12:13;;;;;;;7.05;2.80;;;9.00;87.00;;;;;;4935543;29;20536;-77
2021/12/12 12:15:16;;;;;;;11.07;3.47;;;9.00;86.80;;;;;;4935686;29;20059;-78
2021/12/12 12:18:16;;;;;;;8.65;2.78;;;9.00;86.90;;;;;;4902927;29;20075;-76
2021/12/12 12:20:58;;;;;;;9.43;3.00;;;9.00;86.90;;;;;;4934924;29;20110;-76
2021/12/12 12:36:44;;;;;;;5.57;2.60;;;9.00;87.20;;;;;;4933276;29;20047;-82
2021/12/12 12:39:53;;;;;;;4.55;2.47;;;9.00;86.60;;;;;;4917239;29;20035;-83
2021/12/12 12:49:44;;;;;;;5.70;2.55;;;9.00;87.30;;;;;;4935709;29;20038;-83
2021/12/12 13:06:13;;;;;;;4.60;2.40;;;9.00;87.40;;;;;;4939513;29;20042;-84
2021/12/12 13:09:33;;;;;;;3.17;2.20;;;9.00;87.30;;;;;;4938956;29;20635;-85
2021/12/12 13:12:42;;;;;;;5.20;2.30;;;9.00;87.60;;;;;;4939024;29;20046;-85
2021/12/12 13:15:29;;;;;;;3.70;2.20;;;9.00;87.70;;;;;;4897529;29;20044;-82
2021/12/12 13:18:18;;;;;;;4.15;2.10;;;9.00;87.50;;;;;;4909338;29;20039;-82
2021/12/12 13:21:03;;;;;;;8.55;2.55;;;9.00;87.60;;;;;;4902348;29;20028;-82
2021/12/12 13:23:54;;;;;;;10.32;2.60;;;9.00;87.60;;;;;;4903619;29;20040;-82
2021/12/12 13:26:31;;;;;;;6.40;2.80;;;9.00;87.70;;;;;;4902312;29;20031;-83
2021/12/12 13:29:17;;;;;;;6.10;2.58;;;9.00;87.80;;;;;;4901956;29;20485;-83
2021/12/12 13:31:58;;;;;;;9.18;2.90;;;9.00;88.00;;;;;;4902126;29;20039;-81
2021/12/12 13:34:47;;;;;;;10.02;2.70;;;9.00;88.00;;;;;;4902247;29;20032;-83
2021/12/12 13:37:36;;;;;;;8.57;2.55;;;9.00;88.10;;;;;;4902453;29;20051;-82
2021/12/12 13:40:16;;;;;;;8.05;2.80;;;9.00;88.20;;;;;;4901992;29;20025;-82
2021/12/12 13:42:42;;;;;;;7.97;2.47;;;9.00;88.30;;;;;;4902060;29;20392;-82
2021/12/12 13:45:23;;;;;;;7.53;2.90;;;9.00;88.40;;;;;;4919231;29;20062;-83
2021/12/12 13:47:49;;;;;;;;;;;9.00;88.40;;;;;;4901966;29;21924;-80
2021/12/12 13:51:09;;;;;;;5.28;2.30;;;9.00;88.50;;;;;;4920621;29;19907;-80
2021/12/12 13:54:24;;;;;;;5.18;2.53;;;9.00;88.50;;;;;;4861722;29;20052;-82
2021/12/12 13:57:21;;;;;;;6.07;2.63;;;9.00;88.60;;;;;;4864968;29;20029;-81
2021/12/12 14:03:42;;;;;;;6.30;3.13;;;9.00;89.80;;;;;;4887800;29;19997;-87
2021/12/12 18:26:16;;;;;;;8.63;6.38;;;9.30;90.00;;;;;;4915836;29;20511;-80
2021/12/12 18:28:46;;;;;;;7.68;5.75;;;9.30;89.80;;;;;;4917436;29;20063;-79
2021/12/12 18:31:19;;;;;;;7.68;6.00;;;9.30;89.90;;;;;;4918746;29;20064;-78
2021/12/12 18:34:06;;;;;;;8.23;6.40;;;9.30;89.90;;;;;;4918384;29;20507;-77
2021/12/12 18:36:56;;;;;;;8.77;6.75;;;9.30;89.90;;;;;;4917312;29;20035;-77
2021/12/12 18:39:26;;;;;;;9.13;5.97;;;9.30;89.90;;;;;;4915789;29;20028;-77
2021/12/12 18:41:59;;;;;;;8.65;6.60;;;9.30;90.00;;;;;;4917703;29;20024;-77
2021/12/12 18:44:31;;;;;;;7.88;6.15;;;9.30;89.90;;;;;;4917659;29;20027;-78
2021/12/12 18:47:01;;;;;;;7.70;6.13;;;9.30;89.90;;;;;;4917849;29;20126;-77
2021/12/12 18:49:33;;;;;;;8.70;6.50;;;9.30;89.90;;;;;;4917438;29;20079;-77
2021/12/12 18:52:22;;;;;;;8.63;6.20;;;9.30;89.90;;;;;;4918011;29;20032;-78
2021/12/12 18:54:55;;;;;;;8.15;6.30;;;9.30;90.00;;;;;;4917533;29;20718;-77
2021/12/12 18:57:30;;;;;;;8.45;6.43;;;9.20;89.90;;;;;;4917476;29;20040;-77
2021/12/12 19:00:09;;;;;;;9.55;6.25;;;9.20;90.00;;;;;;4917157;29;20075;-77
2021/12/12 19:02:39;;;;;;;9.07;6.70;;;9.10;90.20;;;;;;4916302;29;20028;-77
2021/12/12 19:05:17;;;;;;;8.60;6.50;;;9.20;90.30;;;;;;4917572;29;20024;-77
2021/12/12 19:07:43;;;;;;;8.07;6.30;;;9.10;90.40;;;;;;4916191;29;20059;-77
2021/12/12 19:10:10;;;;;;;8.07;6.45;;;9.10;90.50;;;;;;4915964;29;20060;-79
2021/12/12 19:12:42;;;;;;;8.05;6.50;;;9.10;90.60;;;;;;4916478;29;20036;-79